sensor_id;sensor_type;location;lat;lon;timestamp;pressure;altitude;pressure_sealevel;temperature;humidity
61014;BME280;46899;47.542;19.082;2022-11-15T00:02:33;101019.28;;;4.78;100.00
61014;BME280;46899;47.542;19.082;2022-11-15T00:05:53;101011.56;;;4.75;100.00
61014;BME280;46899;47.542;19.082;2022-11-15T00:09:14;101017.56;;;4.82;100.00
61014;BME280;46899;47.542;19.082;2022-11-15T00:12:35;101016.69;;;4.78;100.00
61014;BME280;46899;47.542;19.082;2022-11-15T00:15:57;101021.84;;;4.83;100.00
61014;BME280;46899;47.542;19.082;2022-11-15T00:19:18;101013.28;;;4.75;100.00
61014;BME280;46899;47.542;19.082;2022-11-15T00:22:39;101010.69;;;4.87;100.00
61014;BME280;46899;47.542;19.082;2022-11-15T00:25:59;101009.84;;;4.79;100.00
61014;BME280;46899;47.542;19.082;2022-11-15T00:29:20;101013.28;;;4.79;100.00
61014;BME280;46899;47.542;19.082;2022-11-15T00:33:04;101012.41;;;4.74;100.00
61014;BME280;46899;47.542;19.082;2022-11-15T00:36:25;101015.00;;;4.71;100.00
61014;BME280;46899;47.542;19.082;2022-11-15T00:39:46;101011.56;;;4.75;100.00
61014;BME280;46899;47.542;19.082;2022-11-15T00:43:07;101002.09;;;4.76;100.00
61014;BME280;46899;47.542;19.082;2022-11-15T00:46:28;100998.66;;;4.74;100.00
61014;BME280;46899;47.542;19.082;2022-11-15T00:49:49;100993.53;;;4.59;100.00
61014;BME280;46899;47.542;19.082;2022-11-15T00:53:10;100988.38;;;4.56;100.00
61014;BME280;46899;47.542;19.082;2022-11-15T00:56:30;100983.25;;;4.54;100.00
61014;BME280;46899;47.542;19.082;2022-11-15T00:59:51;100983.22;;;4.68;100.00
61014;BME280;46899;47.542;19.082;2022-11-15T01:03:12;100981.50;;;4.67;100.00
61014;BME280;46899;47.542;19.082;2022-11-15T01:06:32;100980.63;;;4.72;100.00
61014;BME280;46899;47.542;19.082;2022-11-15T01:09:53;100978.94;;;4.65;100.00
61014;BME280;46899;47.542;19.082;2022-11-15T01:13:14;100981.50;;;4.67;100.00
61014;BME280;46899;47.542;19.082;2022-11-15T01:16:35;100984.94;;;4.60;100.00
61014;BME280;46899;47.542;19.082;2022-11-15T01:19:55;100984.91;;;4.69;100.00
61014;BME280;46899;47.542;19.082;2022-11-15T01:23:16;100978.94;;;4.64;100.00
61014;BME280;46899;47.542;19.082;2022-11-15T01:26:37;100966.06;;;4.64;100.00
61014;BME280;46899;47.542;19.082;2022-11-15T01:29:58;100962.59;;;4.68;100.00
61014;BME280;46899;47.542;19.082;2022-11-15T01:33:19;100954.84;;;4.66;100.00
61014;BME280;46899;47.542;19.082;2022-11-15T01:36:39;100960.84;;;4.76;100.00
61014;BME280;46899;47.542;19.082;2022-11-15T01:40:00;100953.16;;;4.65;100.00
61014;BME280;46899;47.542;19.082;2022-11-15T01:43:25;100958.31;;;4.68;100.00
61014;BME280;46899;47.542;19.082;2022-11-15T01:46:47;100956.59;;;4.67;100.00
61014;BME280;46899;47.542;19.082;2022-11-15T01:50:09;100959.16;;;4.69;100.00
61014;BME280;46899;47.542;19.082;2022-11-15T01:53:30;100960.00;;;4.74;100.00
61014;BME280;46899;47.542;19.082;2022-11-15T01:56:56;100958.31;;;4.65;100.00
61014;BME280;46899;47.542;19.082;2022-11-15T02:00:20;100952.28;;;4.77;100.00
61014;BME280;46899;47.542;19.082;2022-11-15T02:03:56;100952.28;;;4.69;100.00
61014;BME280;46899;47.542;19.082;2022-11-15T02:07:19;100955.75;;;4.64;100.00
61014;BME280;46899;47.542;19.082;2022-11-15T02:10:42;100948.81;;;4.73;100.00
61014;BME280;46899;47.542;19.082;2022-11-15T02:14:03;100942.00;;;4.68;100.00
61014;BME280;46899;47.542;19.082;2022-11-15T02:38:28;100923.00;;;4.95;100.00
61014;BME280;46899;47.542;19.082;2022-11-15T02:45:13;100913.56;;;4.98;100.00
61014;BME280;46899;47.542;19.082;2022-11-15T02:48:37;100907.53;;;4.96;100.00
61014;BME280;46899;47.542;19.082;2022-11-15T02:51:58;100914.41;;;5.00;100.00
61014;BME280;46899;47.542;19.082;2022-11-15T02:55:53;100919.56;;;4.97;100.00
61014;BME280;46899;47.542;19.082;2022-11-15T03:02:53;100920.41;;;5.01;100.00
61014;BME280;46899;47.542;19.082;2022-11-15T03:06:32;100910.97;;;4.98;100.00
61014;BME280;46899;47.542;19.082;2022-11-15T03:10:02;100908.37;;;5.01;100.00
61014;BME280;46899;47.542;19.082;2022-11-15T03:13:26;100916.09;;;5.07;100.00
61014;BME280;46899;47.542;19.082;2022-11-15T03:17:32;100912.66;;;5.05;100.00
61014;BME280;46899;47.542;19.082;2022-11-15T03:20:32;100906.69;;;4.94;100.00
61014;BME280;46899;47.542;19.082;2022-11-15T03:23:54;100909.25;;;4.97;100.00
61014;BME280;46899;47.542;19.082;2022-11-15T03:27:17;100902.38;;;4.99;100.00
61014;BME280;46899;47.542;19.082;2022-11-15T03:30:41;100897.22;;;4.96;100.00
61014;BME280;46899;47.542;19.082;2022-11-15T03:34:04;100890.31;;;5.07;100.00
61014;BME280;46899;47.542;19.082;2022-11-15T03:37:29;100886.03;;;4.97;100.00
61014;BME280;46899;47.542;19.082;2022-11-15T03:40:59;100887.72;;;5.07;100.00
61014;BME280;46899;47.542;19.082;2022-11-15T03:47:54;100882.62;;;4.97;100.00
61014;BME280;46899;47.542;19.082;2022-11-15T03:51:19;100890.34;;;4.95;100.00
61014;BME280;46899;47.542;19.082;2022-11-15T03:54:49;100874.00;;;4.95;100.00
61014;BME280;46899;47.542;19.082;2022-11-15T03:58:10;100881.75;;;4.96;100.00
61014;BME280;46899;47.542;19.082;2022-11-15T04:01:31;100872.28;;;5.01;100.00
61014;BME280;46899;47.542;19.082;2022-11-15T04:04:52;100870.53;;;5.11;100.00
61014;BME280;46899;47.542;19.082;2022-11-15T04:08:13;100864.50;;;5.13;100.00
61014;BME280;46899;47.542;19.082;2022-11-15T04:11:34;100855.09;;;5.03;100.00
61014;BME280;46899;47.542;19.082;2022-11-15T04:14:54;100844.81;;;4.94;100.00
61014;BME280;46899;47.542;19.082;2022-11-15T04:18:27;100837.03;;;4.97;100.00
61014;BME280;46899;47.542;19.082;2022-11-15T04:21:48;100834.44;;;5.02;100.00
61014;BME280;46899;47.542;19.082;2022-11-15T04:25:28;100837.03;;;4.97;100.00
61014;BME280;46899;47.542;19.082;2022-11-15T04:28:51;100833.59;;;5.03;100.00
61014;BME280;46899;47.542;19.082;2022-11-15T04:32:31;100846.41;;;5.16;100.00
61014;BME280;46899;47.542;19.082;2022-11-15T04:35:52;100852.47;;;5.09;100.00
61014;BME280;46899;47.542;19.082;2022-11-15T04:39:32;100842.16;;;5.09;100.00
61014;BME280;46899;47.542;19.082;2022-11-15T04:42:53;100837.03;;;5.00;100.00
61014;BME280;46899;47.542;19.082;2022-11-15T04:46:22;100842.19;;;5.00;100.00
61014;BME280;46899;47.542;19.082;2022-11-15T04:49:44;100844.81;;;4.93;100.00
61014;BME280;46899;47.542;19.082;2022-11-15T04:53:05;100839.69;;;4.83;100.00
61014;BME280;46899;47.542;19.082;2022-11-15T04:56:26;100837.09;;;4.94;100.00
61014;BME280;46899;47.542;19.082;2022-11-15T04:59:47;100830.16;;;5.02;100.00
61014;BME280;46899;47.542;19.082;2022-11-15T05:03:08;100818.19;;;4.91;100.00
61014;BME280;46899;47.542;19.082;2022-11-15T05:06:48;100813.91;;;4.83;100.00
61014;BME280;46899;47.542;19.082;2022-11-15T05:10:09;100823.31;;;4.98;100.00
61014;BME280;46899;47.542;19.082;2022-11-15T05:13:30;100813.84;;;4.99;100.00
61014;BME280;46899;47.542;19.082;2022-11-15T05:16:51;100825.03;;;4.96;100.00
61014;BME280;46899;47.542;19.082;2022-11-15T05:20:15;100824.13;;;5.05;100.00
61014;BME280;46899;47.542;19.082;2022-11-15T05:23:35;100826.69;;;5.09;100.00
61014;BME280;46899;47.542;19.082;2022-11-15T05:26:56;100822.38;;;5.16;100.00
61014;BME280;46899;47.542;19.082;2022-11-15T05:30:20;100824.00;;;5.26;100.00
61014;BME280;46899;47.542;19.082;2022-11-15T05:33:41;100824.88;;;5.23;100.00
61014;BME280;46899;47.542;19.082;2022-11-15T05:37:03;100823.97;;;5.30;100.00
61014;BME280;46899;47.542;19.082;2022-11-15T05:40:25;100826.53;;;5.33;100.00
61014;BME280;46899;47.542;19.082;2022-11-15T05:43:47;100825.69;;;5.33;100.00
61014;BME280;46899;47.542;19.082;2022-11-15T05:47:10;100818.81;;;5.30;100.00
61014;BME280;46899;47.542;19.082;2022-11-15T05:50:33;100823.00;;;5.46;100.00
61014;BME280;46899;47.542;19.082;2022-11-15T05:53:55;100829.03;;;5.50;100.00
61014;BME280;46899;47.542;19.082;2022-11-15T05:57:17;100829.00;;;5.51;100.00
61014;BME280;46899;47.542;19.082;2022-11-15T06:00:38;100820.44;;;5.48;100.00
61014;BME280;46899;47.542;19.082;2022-11-15T06:03:58;100814.41;;;5.44;100.00
61014;BME280;46899;47.542;19.082;2022-11-15T06:07:19;100816.97;;;5.50;100.00
61014;BME280;46899;47.542;19.082;2022-11-15T06:10:41;100804.03;;;5.58;100.00
61014;BME280;46899;47.542;19.082;2022-11-15T06:14:02;100806.47;;;5.70;100.00
61014;BME280;46899;47.542;19.082;2022-11-15T06:17:22;100809.16;;;5.63;100.00
61014;BME280;46899;47.542;19.082;2022-11-15T06:20:43;100816.09;;;5.54;100.00
61014;BME280;46899;47.542;19.082;2022-11-15T06:24:04;100812.59;;;5.62;100.00
61014;BME280;46899;47.542;19.082;2022-11-15T06:27:25;100808.25;;;5.67;100.00
61014;BME280;46899;47.542;19.082;2022-11-15T06:30:46;100812.50;;;5.74;100.00
61014;BME280;46899;47.542;19.082;2022-11-15T06:34:12;100819.31;;;5.81;100.00
61014;BME280;46899;47.542;19.082;2022-11-15T06:37:33;100818.44;;;5.88;100.00
61014;BME280;46899;47.542;19.082;2022-11-15T06:40:54;100827.84;;;5.95;100.00
61014;BME280;46899;47.542;19.082;2022-11-15T06:44:15;100824.44;;;5.93;100.00
61014;BME280;46899;47.542;19.082;2022-11-15T06:47:44;100807.19;;;5.92;100.00
61014;BME280;46899;47.542;19.082;2022-11-15T06:51:05;100815.91;;;5.77;100.00
61014;BME280;46899;47.542;19.082;2022-11-15T06:54:26;100821.06;;;5.79;100.00
61014;BME280;46899;47.542;19.082;2022-11-15T06:57:50;100826.25;;;5.76;100.00
61014;BME280;46899;47.542;19.082;2022-11-15T07:01:12;100821.06;;;5.79;100.00
61014;BME280;46899;47.542;19.082;2022-11-15T07:04:34;100817.66;;;5.74;100.00
61014;BME280;46899;47.542;19.082;2022-11-15T07:07:55;100806.37;;;5.82;100.00
61014;BME280;46899;47.542;19.082;2022-11-15T07:11:16;100818.47;;;5.80;100.00
61014;BME280;46899;47.542;19.082;2022-11-15T07:14:37;100811.53;;;5.87;100.00
61014;BME280;46899;47.542;19.082;2022-11-15T07:18:00;100803.78;;;5.90;100.00
61014;BME280;46899;47.542;19.082;2022-11-15T07:21:21;100801.16;;;5.94;100.00
61014;BME280;46899;47.542;19.082;2022-11-15T07:24:47;100816.63;;;5.96;100.00
61014;BME280;46899;47.542;19.082;2022-11-15T07:28:08;100810.50;;;6.06;100.00
61014;BME280;46899;47.542;19.082;2022-11-15T07:31:28;100803.59;;;6.08;100.00
61014;BME280;46899;47.542;19.082;2022-11-15T07:34:49;100800.88;;;6.23;100.00
61014;BME280;46899;47.542;19.082;2022-11-15T07:38:10;100799.87;;;6.36;100.00
61014;BME280;46899;47.542;19.082;2022-11-15T07:41:31;100799.69;;;6.53;100.00
61014;BME280;46899;47.542;19.082;2022-11-15T07:44:52;100800.41;;;6.65;100.00
61014;BME280;46899;47.542;19.082;2022-11-15T07:48:12;100803.91;;;6.61;100.00
61014;BME280;46899;47.542;19.082;2022-11-15T07:51:33;100808.06;;;6.74;100.00
61014;BME280;46899;47.542;19.082;2022-11-15T07:54:54;100803.72;;;6.76;100.00
61014;BME280;46899;47.542;19.082;2022-11-15T07:58:15;100799.31;;;6.83;100.00
61014;BME280;46899;47.542;19.082;2022-11-15T08:01:36;100789.03;;;6.78;100.00
61014;BME280;46899;47.542;19.082;2022-11-15T08:04:57;100791.47;;;6.90;100.00
61014;BME280;46899;47.542;19.082;2022-11-15T08:08:18;100791.28;;;7.06;100.00
61014;BME280;46899;47.542;19.082;2022-11-15T08:11:39;100793.75;;;7.13;100.00
61014;BME280;46899;47.542;19.082;2022-11-15T08:15:00;100790.31;;;7.13;100.00
61014;BME280;46899;47.542;19.082;2022-11-15T08:18:21;100777.31;;;7.17;100.00
61014;BME280;46899;47.542;19.082;2022-11-15T08:21:41;100771.19;;;7.23;100.00
61014;BME280;46899;47.542;19.082;2022-11-15T08:25:02;100771.91;;;7.32;100.00
61014;BME280;46899;47.542;19.082;2022-11-15T08:28:23;100773.56;;;7.36;100.00
61014;BME280;46899;47.542;19.082;2022-11-15T08:31:44;100764.12;;;7.34;100.00
61014;BME280;46899;47.542;19.082;2022-11-15T08:35:05;100766.84;;;7.23;100.00
61014;BME280;46899;47.542;19.082;2022-11-15T08:38:26;100762.63;;;7.19;100.00
61014;BME280;46899;47.542;19.082;2022-11-15T08:41:50;100751.53;;;7.10;100.00
61014;BME280;46899;47.542;19.082;2022-11-15T08:45:11;100748.13;;;7.08;100.00
61014;BME280;46899;47.542;19.082;2022-11-15T08:48:31;100738.75;;;7.01;100.00
61014;BME280;46899;47.542;19.082;2022-11-15T08:51:53;100748.09;;;7.09;100.00
61014;BME280;46899;47.542;19.082;2022-11-15T08:55:14;100751.53;;;7.11;100.00
61014;BME280;46899;47.542;19.082;2022-11-15T08:58:37;100736.91;;;7.09;100.00
61014;BME280;46899;47.542;19.082;2022-11-15T09:01:58;100734.34;;;7.06;100.00
61014;BME280;46899;47.542;19.082;2022-11-15T09:05:19;100736.97;;;7.03;100.00
61014;BME280;46899;47.542;19.082;2022-11-15T09:08:40;100739.63;;;6.98;100.00
61014;BME280;46899;47.542;19.082;2022-11-15T09:12:16;100740.47;;;7.00;100.00
61014;BME280;46899;47.542;19.082;2022-11-15T09:15:37;100736.97;;;7.04;100.00
61014;BME280;46899;47.542;19.082;2022-11-15T09:18:58;100731.63;;;7.15;100.00
61014;BME280;46899;47.542;19.082;2022-11-15T09:22:19;100731.44;;;7.27;100.00
61014;BME280;46899;47.542;19.082;2022-11-15T09:25:40;100705.47;;;7.33;100.00
61014;BME280;46899;47.542;19.082;2022-11-15T09:29:01;100706.09;;;7.47;100.00
61014;BME280;46899;47.542;19.082;2022-11-15T09:32:22;100710.06;;;7.66;100.00
61014;BME280;46899;47.542;19.082;2022-11-15T09:35:43;100709.94;;;7.74;100.00
61014;BME280;46899;47.542;19.082;2022-11-15T09:39:04;100703.78;;;7.81;100.00
61014;BME280;46899;47.542;19.082;2022-11-15T09:49:17;100692.00;;;7.65;100.00
61014;BME280;46899;47.542;19.082;2022-11-15T09:52:22;100691.00;;;7.70;100.00
61014;BME280;46899;47.542;19.082;2022-11-15T09:55:30;100689.28;;;7.72;100.00
61014;BME280;46899;47.542;19.082;2022-11-15T09:58:40;100695.34;;;7.70;100.00
61014;BME280;46899;47.542;19.082;2022-11-15T10:04:56;100691.88;;;7.71;100.00
61014;BME280;46899;47.542;19.082;2022-11-15T10:11:07;100687.72;;;7.62;100.00
61014;BME280;46899;47.542;19.082;2022-11-15T10:14:30;100677.06;;;7.79;100.00
61014;BME280;46899;47.542;19.082;2022-11-15T10:23:59;100664.75;;;7.91;100.00
61014;BME280;46899;47.542;19.082;2022-11-15T10:27:07;100657.06;;;7.85;100.00
61014;BME280;46899;47.542;19.082;2022-11-15T10:30:12;100646.09;;;7.71;100.00
61014;BME280;46899;47.542;19.082;2022-11-15T10:36:23;100644.47;;;7.67;100.00
61014;BME280;46899;47.542;19.082;2022-11-15T10:39:27;100639.78;;;7.86;100.00
61014;BME280;46899;47.542;19.082;2022-11-15T10:42:30;100642.56;;;7.77;100.00
61014;BME280;46899;47.542;19.082;2022-11-15T10:45:33;100633.94;;;7.76;100.00
61014;BME280;46899;47.542;19.082;2022-11-15T10:48:36;100630.09;;;7.95;100.00
61014;BME280;46899;47.542;19.082;2022-11-15T10:51:42;100623.19;;;7.94;100.00
61014;BME280;46899;47.542;19.082;2022-11-15T10:54:51;100618.34;;;7.79;100.00
61014;BME280;46899;47.542;19.082;2022-11-15T10:57:58;100604.56;;;7.77;100.00
61014;BME280;46899;47.542;19.082;2022-11-15T11:01:13;100608.47;;;7.96;100.00
61014;BME280;46899;47.542;19.082;2022-11-15T11:04:17;100601.47;;;8.01;100.00
61014;BME280;46899;47.542;19.082;2022-11-15T11:07:30;100602.19;;;8.09;100.00
61014;BME280;46899;47.542;19.082;2022-11-15T11:10:34;100594.31;;;8.14;100.00
61014;BME280;46899;47.542;19.082;2022-11-15T11:13:53;100589.87;;;8.17;100.00
61014;BME280;46899;47.542;19.082;2022-11-15T11:20:32;100584.00;;;8.11;100.00
61014;BME280;46899;47.542;19.082;2022-11-15T11:27:16;100576.09;;;8.17;100.00
61014;BME280;46899;47.542;19.082;2022-11-15T11:30:34;100575.00;;;8.29;100.00
61014;BME280;46899;47.542;19.082;2022-11-15T11:40:12;100565.97;;;8.83;100.00
61014;BME280;46899;47.542;19.082;2022-11-15T11:52:58;100553.16;;;8.39;100.00
61014;BME280;46899;47.542;19.082;2022-11-15T11:56:48;100546.94;;;8.46;100.00
61014;BME280;46899;47.542;19.082;2022-11-15T12:02:34;100534.53;;;8.21;100.00
61014;BME280;46899;47.542;19.082;2022-11-15T12:05:44;100523.00;;;8.35;100.00
61014;BME280;46899;47.542;19.082;2022-11-15T12:09:00;100519.66;;;8.30;100.00
61014;BME280;46899;47.542;19.082;2022-11-15T12:18:12;100513.69;;;8.24;100.00
61014;BME280;46899;47.542;19.082;2022-11-15T12:21:34;100507.47;;;8.35;100.00
61014;BME280;46899;47.542;19.082;2022-11-15T12:24:51;100504.75;;;8.41;100.00
61014;BME280;46899;47.542;19.082;2022-11-15T12:28:01;100507.00;;;8.16;100.00
61014;BME280;46899;47.542;19.082;2022-11-15T12:31:27;100492.72;;;8.37;100.00
61014;BME280;46899;47.542;19.082;2022-11-15T12:34:36;100497.69;;;8.46;100.00
61014;BME280;46899;47.542;19.082;2022-11-15T12:44:12;100482.34;;;8.72;100.00
61014;BME280;46899;47.542;19.082;2022-11-15T12:47:22;100488.84;;;8.54;100.00
61014;BME280;46899;47.542;19.082;2022-11-15T12:53:46;100478.84;;;8.39;100.00
61014;BME280;46899;47.542;19.082;2022-11-15T13:03:22;100473.09;;;8.25;100.00
61014;BME280;46899;47.542;19.082;2022-11-15T13:06:37;100460.16;;;8.27;100.00
61014;BME280;46899;47.542;19.082;2022-11-15T13:15:53;100452.84;;;8.05;100.00
61014;BME280;46899;47.542;19.082;2022-11-15T13:18:57;100448.81;;;7.92;100.00
61014;BME280;46899;47.542;19.082;2022-11-15T13:22:04;100451.63;;;7.83;100.00
61014;BME280;46899;47.542;19.082;2022-11-15T13:25:31;100463.25;;;7.64;100.00
61014;BME280;46899;47.542;19.082;2022-11-15T13:28:43;100456.84;;;7.82;100.00
61014;BME280;46899;47.542;19.082;2022-11-15T13:31:46;100455.78;;;7.90;100.00
61014;BME280;46899;47.542;19.082;2022-11-15T13:34:49;100455.62;;;7.96;100.00
61014;BME280;46899;47.542;19.082;2022-11-15T13:37:55;100457.66;;;7.84;100.00
61014;BME280;46899;47.542;19.082;2022-11-15T13:40:59;100449.72;;;7.91;100.00
61014;BME280;46899;47.542;19.082;2022-11-15T13:44:02;100447.94;;;7.93;100.00
61014;BME280;46899;47.542;19.082;2022-11-15T13:47:06;100449.44;;;7.65;100.00
61014;BME280;46899;47.542;19.082;2022-11-15T13:50:12;100438.88;;;7.74;100.00
61014;BME280;46899;47.542;19.082;2022-11-15T13:53:15;100436.25;;;7.76;100.00
61014;BME280;46899;47.542;19.082;2022-11-15T13:56:17;100429.00;;;7.51;100.00
61014;BME280;46899;47.542;19.082;2022-11-15T13:59:25;100426.97;;;7.66;100.00
61014;BME280;46899;47.542;19.082;2022-11-15T14:02:32;100415.41;;;7.80;100.00
61014;BME280;46899;47.542;19.082;2022-11-15T14:05:35;100406.66;;;7.86;100.00
61014;BME280;46899;47.542;19.082;2022-11-15T14:08:41;100404.72;;;7.94;100.00
61014;BME280;46899;47.542;19.082;2022-11-15T14:11:53;100406.63;;;7.87;100.00
61014;BME280;46899;47.542;19.082;2022-11-15T14:14:56;100401.97;;;7.65;100.00
61014;BME280;46899;47.542;19.082;2022-11-15T14:17:59;100400.72;;;7.42;100.00
61014;BME280;46899;47.542;19.082;2022-11-15T14:21:07;100406.91;;;7.37;100.00
61014;BME280;46899;47.542;19.082;2022-11-15T14:24:13;100403.34;;;7.41;100.00
61014;BME280;46899;47.542;19.082;2022-11-15T14:30:22;100400.97;;;7.30;100.00
61014;BME280;46899;47.542;19.082;2022-11-15T14:33:31;100402.19;;;7.14;100.00
61014;BME280;46899;47.542;19.082;2022-11-15T14:36:34;100391.72;;;7.20;100.00
61014;BME280;46899;47.542;19.082;2022-11-15T14:39:37;100389.91;;;7.25;100.00
61014;BME280;46899;47.542;19.082;2022-11-15T14:42:39;100389.00;;;7.26;100.00
61014;BME280;46899;47.542;19.082;2022-11-15T14:45:42;100376.97;;;7.25;100.00
61014;BME280;46899;47.542;19.082;2022-11-15T14:48:44;100379.56;;;7.24;100.00
61014;BME280;46899;47.542;19.082;2022-11-15T14:51:47;100372.81;;;7.17;100.00
61014;BME280;46899;47.542;19.082;2022-11-15T14:54:49;100364.09;;;7.21;100.00
61014;BME280;46899;47.542;19.082;2022-11-15T14:57:51;100357.06;;;7.26;100.00
61014;BME280;46899;47.542;19.082;2022-11-15T15:00:57;100352.72;;;7.29;100.00
61014;BME280;46899;47.542;19.082;2022-11-15T15:04:00;100345.16;;;7.20;100.00
61014;BME280;46899;47.542;19.082;2022-11-15T15:07:02;100348.66;;;7.18;100.00
61014;BME280;46899;47.542;19.082;2022-11-15T15:10:05;100348.59;;;7.19;100.00
61014;BME280;46899;47.542;19.082;2022-11-15T15:13:27;100361.69;;;7.13;100.00
61014;BME280;46899;47.542;19.082;2022-11-15T15:16:32;100365.94;;;7.16;100.00
61014;BME280;46899;47.542;19.082;2022-11-15T15:19:34;100351.25;;;7.16;100.00
61014;BME280;46899;47.542;19.082;2022-11-15T15:22:37;100351.22;;;7.18;100.00
61014;BME280;46899;47.542;19.082;2022-11-15T15:25:40;100347.78;;;7.17;100.00
61014;BME280;46899;47.542;19.082;2022-11-15T15:28:43;100339.94;;;7.22;100.00
61014;BME280;46899;47.542;19.082;2022-11-15T15:31:46;100340.97;;;7.13;100.00
61014;BME280;46899;47.542;19.082;2022-11-15T15:34:49;100341.91;;;7.09;100.00
61014;BME280;46899;47.542;19.082;2022-11-15T15:37:51;100339.31;;;7.11;100.00
61014;BME280;46899;47.542;19.082;2022-11-15T15:40:55;100335.72;;;7.16;100.00
61014;BME280;46899;47.542;19.082;2022-11-15T15:43:57;100339.16;;;7.17;100.00
61014;BME280;46899;47.542;19.082;2022-11-15T15:47:00;100347.00;;;7.14;100.00
61014;BME280;46899;47.542;19.082;2022-11-15T15:50:03;100352.16;;;7.14;100.00
61014;BME280;46899;47.542;19.082;2022-11-15T15:53:05;100350.72;;;7.01;100.00
61014;BME280;46899;47.542;19.082;2022-11-15T15:56:08;100343.72;;;7.06;100.00
61014;BME280;46899;47.542;19.082;2022-11-15T15:59:11;100341.97;;;7.08;100.00
61014;BME280;46899;47.542;19.082;2022-11-15T16:02:14;100337.75;;;7.04;100.00
61014;BME280;46899;47.542;19.082;2022-11-15T16:05:16;100335.97;;;7.06;100.00
61014;BME280;46899;47.542;19.082;2022-11-15T16:08:20;100338.56;;;7.06;100.00
61014;BME280;46899;47.542;19.082;2022-11-15T16:11:23;100336.03;;;7.03;100.00
61014;BME280;46899;47.542;19.082;2022-11-15T16:14:25;100333.44;;;7.03;100.00
61014;BME280;46899;47.542;19.082;2022-11-15T16:17:32;100331.56;;;7.09;100.00
61014;BME280;46899;47.542;19.082;2022-11-15T16:23:38;100328.16;;;7.07;100.00
61014;BME280;46899;47.542;19.082;2022-11-15T16:26:41;100328.09;;;7.10;100.00
61014;BME280;46899;47.542;19.082;2022-11-15T16:29:43;100326.56;;;7.02;100.00
61014;BME280;46899;47.542;19.082;2022-11-15T16:32:46;100335.25;;;6.98;100.00
61014;BME280;46899;47.542;19.082;2022-11-15T16:35:49;100325.63;;;7.06;100.00
61014;BME280;46899;47.542;19.082;2022-11-15T16:38:51;100327.34;;;7.05;100.00
61014;BME280;46899;47.542;19.082;2022-11-15T16:41:54;100333.38;;;7.06;100.00
61014;BME280;46899;47.542;19.082;2022-11-15T16:44:56;100319.78;;;6.96;100.00
61014;BME280;46899;47.542;19.082;2022-11-15T16:47:58;100317.97;;;7.00;100.00
61014;BME280;46899;47.542;19.082;2022-11-15T16:51:04;100318.78;;;7.03;100.00
61014;BME280;46899;47.542;19.082;2022-11-15T16:54:07;100310.97;;;7.05;100.00
61014;BME280;46899;47.542;19.082;2022-11-15T16:57:09;100307.44;;;7.09;100.00
61014;BME280;46899;47.542;19.082;2022-11-15T17:00:12;100307.44;;;7.09;100.00
61014;BME280;46899;47.542;19.082;2022-11-15T17:03:17;100302.41;;;7.03;100.00
61014;BME280;46899;47.542;19.082;2022-11-15T17:06:21;100305.97;;;6.97;100.00
61014;BME280;46899;47.542;19.082;2022-11-15T17:09:24;100289.66;;;6.94;100.00
61014;BME280;46899;47.542;19.082;2022-11-15T17:12:27;100301.47;;;7.05;100.00
61014;BME280;46899;47.542;19.082;2022-11-15T17:15:29;100299.81;;;7.03;100.00
61014;BME280;46899;47.542;19.082;2022-11-15T17:18:32;100297.09;;;7.09;100.00
61014;BME280;46899;47.542;19.082;2022-11-15T17:21:35;100296.97;;;7.15;100.00
61014;BME280;46899;47.542;19.082;2022-11-15T17:24:38;100294.31;;;7.16;100.00
61014;BME280;46899;47.542;19.082;2022-11-15T17:27:40;100288.44;;;7.10;100.00
61014;BME280;46899;47.542;19.082;2022-11-15T17:30:44;100286.56;;;7.18;100.00
61014;BME280;46899;47.542;19.082;2022-11-15T17:33:47;100282.19;;;7.20;100.00
61014;BME280;46899;47.542;19.082;2022-11-15T17:36:49;100284.91;;;7.14;100.00
61014;BME280;46899;47.542;19.082;2022-11-15T17:39:51;100278.91;;;7.12;100.00
61014;BME280;46899;47.542;19.082;2022-11-15T17:42:54;100279.81;;;7.11;100.00
61014;BME280;46899;47.542;19.082;2022-11-15T17:45:58;100271.91;;;7.17;100.00
61014;BME280;46899;47.542;19.082;2022-11-15T17:49:01;100266.72;;;7.18;100.00
61014;BME280;46899;47.542;19.082;2022-11-15T17:52:04;100264.37;;;7.06;100.00
61014;BME280;46899;47.542;19.082;2022-11-15T17:55:06;100253.03;;;7.12;100.00
61014;BME280;46899;47.542;19.082;2022-11-15T17:58:08;100254.06;;;7.05;100.00
61014;BME280;46899;47.542;19.082;2022-11-15T18:01:24;100248.78;;;7.09;100.00
61014;BME280;46899;47.542;19.082;2022-11-15T18:04:27;100245.44;;;7.06;100.00
61014;BME280;46899;47.542;19.082;2022-11-15T18:07:30;100233.47;;;7.02;100.00
61014;BME280;46899;47.542;19.082;2022-11-15T18:10:33;100236.03;;;7.02;100.00
61014;BME280;46899;47.542;19.082;2022-11-15T18:13:35;100234.28;;;7.04;100.00
61014;BME280;46899;47.542;19.082;2022-11-15T18:16:38;100233.31;;;7.08;100.00
61014;BME280;46899;47.542;19.082;2022-11-15T18:19:41;100229.22;;;6.98;100.00
61014;BME280;46899;47.542;19.082;2022-11-15T18:22:43;100225.81;;;6.96;100.00
61014;BME280;46899;47.542;19.082;2022-11-15T18:25:50;100226.63;;;6.98;100.00
61014;BME280;46899;47.542;19.082;2022-11-15T18:28:53;100227.53;;;6.97;100.00
61014;BME280;46899;47.542;19.082;2022-11-15T18:31:56;100228.56;;;6.89;100.00
61014;BME280;46899;47.542;19.082;2022-11-15T18:34:59;100225.91;;;6.91;100.00
61014;BME280;46899;47.542;19.082;2022-11-15T18:38:02;100220.69;;;6.93;100.00
61014;BME280;46899;47.542;19.082;2022-11-15T18:41:11;100223.16;;;6.99;100.00